createdAt,value
2022-11-25T00:54:17.959Z,3.90
2022-11-25T00:56:48.554Z,4.40
2022-11-25T00:59:19.139Z,4.10
2022-11-25T01:01:49.853Z,4.07
2022-11-25T01:04:21.459Z,3.10
2022-11-25T01:06:52.054Z,3.00
2022-11-25T01:09:24.502Z,3.20
2022-11-25T01:11:55.758Z,3.10
2022-11-25T01:14:27.678Z,3.00
2022-11-25T01:16:58.444Z,2.70
2022-11-25T01:19:30.060Z,2.60
2022-11-25T01:22:01.039Z,3.10
2022-11-25T01:24:34.653Z,2.70
2022-11-25T01:27:05.661Z,2.90
2022-11-25T01:29:36.650Z,2.90
2022-11-25T01:32:08.034Z,3.30
2022-11-25T01:34:39.065Z,3.30
2022-11-25T01:37:10.143Z,3.10
2022-11-25T01:39:42.567Z,3.27
2022-11-25T01:42:13.585Z,3.80
2022-11-25T01:44:45.217Z,3.47
2022-11-25T01:47:19.526Z,5.37
2022-11-25T01:49:53.783Z,5.97
2022-11-25T01:52:27.423Z,6.13
2022-11-25T01:55:04.894Z,5.70
2022-11-25T01:57:41.408Z,4.10
2022-11-25T02:00:14.043Z,4.60
2022-11-25T02:02:45.914Z,4.50
2022-11-25T02:05:21.065Z,4.33
2022-11-25T02:07:54.452Z,4.40
2022-11-25T02:10:30.203Z,4.33
2022-11-25T02:13:02.569Z,4.60
2022-11-25T02:15:37.536Z,4.47
2022-11-25T02:18:09.608Z,4.83
2022-11-25T02:20:42.897Z,5.60
2022-11-25T02:23:23.152Z,5.63
2022-11-25T02:25:57.536Z,7.13
2022-11-25T02:28:30.507Z,7.57
2022-11-25T02:31:02.474Z,8.23
2022-11-25T02:33:33.516Z,9.40
2022-11-25T02:36:07.707Z,9.37
2022-11-25T02:38:42.512Z,10.90
2022-11-25T02:41:18.141Z,8.53
2022-11-25T02:43:49.607Z,7.77
2022-11-25T02:46:22.935Z,6.90
2022-11-25T02:49:10.982Z,6.57
2022-11-25T02:51:44.816Z,5.70
2022-11-25T02:54:17.644Z,5.10
2022-11-25T02:56:50.656Z,5.03
2022-11-25T02:59:22.294Z,4.90
2022-11-25T03:01:54.047Z,4.53
2022-11-25T03:04:25.970Z,4.50
2022-11-25T03:06:57.912Z,4.90
2022-11-25T03:09:29.535Z,4.53
2022-11-25T03:12:19.674Z,4.53
2022-11-25T03:14:51.651Z,4.67
2022-11-25T03:17:23.360Z,4.50
2022-11-25T03:19:57.421Z,4.77
2022-11-25T03:22:28.654Z,4.23
2022-11-25T03:27:38.321Z,3.23
2022-11-25T03:30:13.553Z,3.13
2022-11-25T03:32:45.319Z,2.80
2022-11-25T03:35:17.390Z,3.10
2022-11-25T03:37:50.164Z,3.10
2022-11-25T03:40:22.289Z,3.20
2022-11-25T03:42:55.542Z,3.20
2022-11-25T03:45:27.699Z,3.30
2022-11-25T03:47:59.221Z,3.67
2022-11-25T03:50:31.097Z,4.70
2022-11-25T03:53:02.088Z,3.80
2022-11-25T03:55:33.708Z,3.40
2022-11-25T03:58:06.725Z,4.00
2022-11-25T04:00:38.428Z,3.67
2022-11-25T04:03:09.630Z,4.00
2022-11-25T04:05:41.131Z,3.50
2022-11-25T04:08:13.391Z,3.77
2022-11-25T04:10:45.073Z,3.80
2022-11-25T04:13:17.539Z,4.10
2022-11-25T04:15:50.822Z,3.70
2022-11-25T04:18:22.839Z,3.40
2022-11-25T04:20:55.108Z,3.50
2022-11-25T04:23:26.758Z,4.03
2022-11-25T04:25:57.816Z,3.83
2022-11-25T04:28:30.881Z,3.87
2022-11-25T04:31:03.963Z,4.27
2022-11-25T04:33:35.195Z,4.20
2022-11-25T04:36:06.508Z,4.13
2022-11-25T04:38:38.191Z,4.60
2022-11-25T04:41:09.415Z,3.70
2022-11-25T04:43:42.656Z,3.97
2022-11-25T04:46:17.972Z,3.90
2022-11-25T04:51:31.830Z,4.00
2022-11-25T04:54:03.294Z,3.90
2022-11-25T04:59:29.037Z,3.70
2022-11-25T05:02:00.119Z,3.67
2022-11-25T05:04:31.963Z,3.90
2022-11-25T05:07:03.430Z,4.53
2022-11-25T05:09:34.303Z,4.17
2022-11-25T05:12:06.343Z,5.00
2022-11-25T05:14:39.548Z,5.63
2022-11-25T05:17:15.240Z,5.00
2022-11-25T05:19:47.518Z,5.10
2022-11-25T05:22:20.082Z,4.93
2022-11-25T05:24:51.704Z,5.40
2022-11-25T05:27:23.186Z,5.90
2022-11-25T05:29:56.915Z,5.30
2022-11-25T05:32:27.907Z,7.00
2022-11-25T05:34:59.591Z,7.00
2022-11-25T05:37:30.565Z,5.97
2022-11-25T05:40:01.623Z,6.30
2022-11-25T05:42:33.068Z,5.60
2022-11-25T05:45:06.592Z,5.47
2022-11-25T05:47:38.730Z,4.83
2022-11-25T05:50:12.067Z,5.07
2022-11-25T05:52:47.092Z,5.00
2022-11-25T05:55:19.101Z,3.90
2022-11-25T05:57:52.057Z,4.30
2022-11-25T06:00:26.864Z,3.83
2022-11-25T06:02:58.586Z,4.87
2022-11-25T06:05:30.198Z,4.50
2022-11-25T06:08:01.254Z,4.67
2022-11-25T06:10:32.903Z,4.77
2022-11-25T06:13:04.703Z,5.03
2022-11-25T06:15:38.756Z,5.00
2022-11-25T06:18:09.744Z,4.70
2022-11-25T06:20:40.782Z,4.20
2022-11-25T06:23:12.191Z,4.27
2022-11-25T06:25:43.387Z,4.10
2022-11-25T06:28:15.004Z,4.23
2022-11-25T06:30:47.564Z,3.80
2022-11-25T06:33:18.462Z,4.00
2022-11-25T06:35:49.523Z,3.80
2022-11-25T06:38:20.521Z,4.33
2022-11-25T06:40:56.437Z,4.00
2022-11-25T06:43:30.134Z,3.73
2022-11-25T06:46:09.147Z,3.70
2022-11-25T06:48:41.030Z,4.10
2022-11-25T06:51:14.759Z,3.90
2022-11-25T06:53:46.392Z,3.70
2022-11-25T06:56:19.649Z,3.20
2022-11-25T06:58:51.860Z,3.20
2022-11-25T07:01:28.144Z,2.40
2022-11-25T07:04:05.144Z,1.90
2022-11-25T07:06:36.834Z,2.20
2022-11-25T07:09:08.096Z,2.53
2022-11-25T07:11:41.022Z,2.47
2022-11-25T07:14:16.440Z,2.37
2022-11-25T07:16:50.037Z,2.23
2022-11-25T07:19:22.020Z,1.80
2022-11-25T07:21:53.800Z,1.83
2022-11-25T07:24:25.480Z,1.43
2022-11-25T07:26:56.543Z,1.63
2022-11-25T07:30:10.731Z,1.40
2022-11-25T07:32:20.177Z,1.60
2022-11-25T07:34:55.140Z,1.60
2022-11-25T07:37:26.159Z,1.60
2022-11-25T07:39:58.037Z,1.53
2022-11-25T07:42:29.371Z,1.60
2022-11-25T07:45:01.313Z,1.73
2022-11-25T07:47:36.380Z,1.70
2022-11-25T07:50:08.120Z,1.80
2022-11-25T07:52:42.714Z,1.83
2022-11-25T07:55:13.819Z,2.00
2022-11-25T07:57:45.463Z,1.73
2022-11-25T08:00:18.282Z,1.90
2022-11-25T08:02:51.740Z,1.77
2022-11-25T08:05:23.850Z,1.77
2022-11-25T08:07:55.717Z,1.87
2022-11-25T08:10:26.815Z,2.00
2022-11-25T08:12:57.958Z,1.90
2022-11-25T08:15:29.385Z,1.73
2022-11-25T08:18:02.280Z,2.07
2022-11-25T08:20:33.874Z,1.60
2022-11-25T08:23:04.881Z,1.47
2022-11-25T08:25:35.932Z,1.40
2022-11-25T08:28:06.962Z,1.50
2022-11-25T08:30:38.564Z,1.77
2022-11-25T08:33:12.148Z,1.27
2022-11-25T08:35:43.178Z,1.43
2022-11-25T08:38:15.558Z,1.50
2022-11-25T08:40:47.970Z,1.40
2022-11-25T08:43:19.338Z,1.60
2022-11-25T08:45:50.411Z,1.40
2022-11-25T08:48:24.365Z,1.43
2022-11-25T08:50:58.059Z,1.27
